createdAt,value
2023-04-13T00:01:36.014Z,7.62
2023-04-13T00:04:42.022Z,7.63
2023-04-13T00:07:45.101Z,7.54
2023-04-13T00:10:50.106Z,7.53
2023-04-13T00:13:54.656Z,7.43
2023-04-13T00:16:57.290Z,7.55
2023-04-13T00:19:58.902Z,7.61
2023-04-13T00:23:03.429Z,7.58
2023-04-13T00:26:05.261Z,7.63
2023-04-13T00:29:06.812Z,7.71
2023-04-13T00:32:08.726Z,7.62
2023-04-13T00:35:11.070Z,7.68
2023-04-13T00:38:13.985Z,7.50
2023-04-13T00:41:15.781Z,7.39
2023-04-13T00:44:17.486Z,7.39
2023-04-13T00:47:23.816Z,7.28
2023-04-13T00:50:26.796Z,7.20
2023-04-13T00:53:31.363Z,7.11
2023-04-13T00:56:35.585Z,7.07
2023-04-13T00:59:38.853Z,6.94
2023-04-13T01:02:40.614Z,6.84
2023-04-13T01:05:50.594Z,6.84
2023-04-13T01:08:55.998Z,6.84
2023-04-13T01:12:02.667Z,6.90
2023-04-13T01:15:05.913Z,6.92
2023-04-13T01:18:10.743Z,6.94
2023-04-13T01:21:16.962Z,6.94
2023-04-13T01:24:26.793Z,6.79
2023-04-13T01:27:38.376Z,6.78
2023-04-13T01:30:40.531Z,6.61
2023-04-13T01:33:42.306Z,6.74
2023-04-13T01:36:44.469Z,6.48
2023-04-13T01:39:47.330Z,6.45
2023-04-13T01:42:51.360Z,6.38
2023-04-13T01:45:56.336Z,6.42
2023-04-13T01:49:01.129Z,6.43
2023-04-13T01:52:02.905Z,6.44
2023-04-13T01:55:05.627Z,6.56
2023-04-13T01:58:08.841Z,6.49
2023-04-13T02:01:10.471Z,6.54
2023-04-13T02:04:12.491Z,6.53
2023-04-13T02:07:14.105Z,6.69
2023-04-13T02:10:15.672Z,6.65
2023-04-13T02:13:18.773Z,6.66
2023-04-13T02:16:21.143Z,6.55
2023-04-13T02:19:22.726Z,6.53
2023-04-13T02:22:24.704Z,6.53
2023-04-13T02:25:26.584Z,6.66
2023-04-13T02:28:29.881Z,6.67
2023-04-13T02:31:31.498Z,6.62
2023-04-13T02:34:33.311Z,6.62
2023-04-13T02:37:34.871Z,6.60
2023-04-13T02:40:37.245Z,6.66
2023-04-13T02:43:42.016Z,6.68
2023-04-13T02:46:43.981Z,6.69
2023-04-13T02:49:46.144Z,6.72
2023-04-13T02:52:48.134Z,6.81
2023-04-13T02:55:49.680Z,6.84
2023-04-13T02:58:52.598Z,6.83
2023-04-13T03:01:54.345Z,6.84
2023-04-13T03:04:56.436Z,6.64
2023-04-13T03:07:58.164Z,6.78
2023-04-13T03:10:59.721Z,6.72
2023-04-13T03:14:02.708Z,6.39
2023-04-13T03:17:04.977Z,6.41
2023-04-13T03:20:07.818Z,6.29
2023-04-13T03:23:12.429Z,6.31
2023-04-13T03:26:13.935Z,6.24
2023-04-13T03:29:16.960Z,6.21
2023-04-13T03:32:20.792Z,6.28
2023-04-13T03:35:22.473Z,6.37
2023-04-13T03:38:24.478Z,6.25
2023-04-13T03:41:26.086Z,6.23
2023-04-13T03:44:29.030Z,6.16
2023-04-13T03:47:30.760Z,5.92
2023-04-13T03:50:32.316Z,5.46
2023-04-13T03:53:35.286Z,4.60
2023-04-13T03:56:36.903Z,4.37
2023-04-13T03:59:40.117Z,4.22
2023-04-13T04:02:43.388Z,4.07
2023-04-13T04:05:45.213Z,4.04
2023-04-13T04:08:47.768Z,3.93
2023-04-13T04:11:49.749Z,3.86
2023-04-13T04:14:53.674Z,3.69
2023-04-13T04:17:55.854Z,3.68
2023-04-13T04:20:57.968Z,3.83
2023-04-13T04:23:59.827Z,3.79
2023-04-13T04:27:01.793Z,3.89
2023-04-13T04:30:05.875Z,4.04
2023-04-13T04:33:09.959Z,4.02
2023-04-13T04:36:11.669Z,4.06
2023-04-13T04:39:14.764Z,4.17
2023-04-13T04:42:16.639Z,4.21
2023-04-13T04:45:20.103Z,4.20
2023-04-13T04:48:21.691Z,4.29
2023-04-13T04:51:23.475Z,4.36
2023-04-13T04:54:25.767Z,4.46
2023-04-13T04:57:29.560Z,4.49
2023-04-13T05:00:32.715Z,4.60
2023-04-13T05:03:34.697Z,4.63
2023-04-13T05:06:36.242Z,4.69
2023-04-13T05:09:38.349Z,4.70
2023-04-13T05:12:40.014Z,4.76
2023-04-13T05:15:42.908Z,4.62
2023-04-13T05:18:44.701Z,4.55
2023-04-13T05:21:49.083Z,4.46
2023-04-13T05:24:51.691Z,4.53
2023-04-13T05:27:53.404Z,4.59
2023-04-13T05:31:00.394Z,4.68
2023-04-13T05:34:01.980Z,4.62
2023-04-13T05:37:03.593Z,4.66
2023-04-13T05:40:05.592Z,4.68
2023-04-13T05:43:07.079Z,4.70
2023-04-13T05:46:10.672Z,4.75
2023-04-13T05:49:12.212Z,4.81
2023-04-13T05:52:13.872Z,4.78
2023-04-13T05:55:15.541Z,4.82
2023-04-13T05:58:17.639Z,4.95
2023-04-13T06:01:20.732Z,4.73
2023-04-13T06:04:22.485Z,4.61
2023-04-13T06:07:25.658Z,4.71
2023-04-13T06:10:27.511Z,4.86
2023-04-13T06:13:30.358Z,4.82
2023-04-13T06:16:33.323Z,4.52
2023-04-13T06:19:34.945Z,4.63
2023-04-13T06:22:36.433Z,4.78
2023-04-13T06:25:40.413Z,4.73
2023-04-13T06:28:42.268Z,4.76
2023-04-13T06:31:45.844Z,4.83
2023-04-13T06:34:47.401Z,4.74
2023-04-13T06:37:48.957Z,4.70
2023-04-13T06:40:50.507Z,4.61
2023-04-13T06:43:52.553Z,4.79
2023-04-13T06:46:55.914Z,4.90
2023-04-13T06:49:58.745Z,4.90
2023-04-13T06:53:00.691Z,5.07
2023-04-13T06:56:02.474Z,5.11
2023-04-13T06:59:08.230Z,4.99
2023-04-13T10:05:17.084Z,6.10
2023-04-13T10:08:36.596Z,6.24
2023-04-13T10:11:45.179Z,6.20
2023-04-13T10:14:49.383Z,6.24
2023-04-13T10:18:02.391Z,6.22
2023-04-13T10:21:06.003Z,6.29
2023-04-13T10:24:11.988Z,6.41
2023-04-13T10:27:15.648Z,6.35
2023-04-13T10:30:18.390Z,6.40
2023-04-13T10:33:21.755Z,6.46
2023-04-13T10:36:35.601Z,6.54
2023-04-13T10:39:37.757Z,6.53
2023-04-13T10:42:51.950Z,6.38
2023-04-13T10:46:13.049Z,6.38
2023-04-13T10:49:14.898Z,6.45
2023-04-13T10:52:18.304Z,6.42
2023-04-13T10:55:23.523Z,6.40
2023-04-13T10:58:27.060Z,6.25
2023-04-13T11:01:28.943Z,6.31
2023-04-13T11:04:31.981Z,6.26
2023-04-13T11:07:38.902Z,6.28
2023-04-13T11:10:42.200Z,6.28
2023-04-13T11:13:45.292Z,6.37
2023-04-13T11:16:47.110Z,6.45
2023-04-13T11:19:50.515Z,6.39
2023-04-13T11:22:53.951Z,6.39
2023-04-13T11:25:56.979Z,6.58
2023-04-13T11:28:59.137Z,6.66
2023-04-13T11:32:01.541Z,6.70
2023-04-13T11:35:07.795Z,6.65
2023-04-13T11:38:16.411Z,6.73
2023-04-13T11:41:18.697Z,6.74
2023-04-13T11:44:20.515Z,6.82
2023-04-13T11:47:25.390Z,6.80
2023-04-13T11:50:27.508Z,6.98
2023-04-13T11:53:31.229Z,7.12
2023-04-13T11:56:33.907Z,7.20
2023-04-13T11:59:36.521Z,7.21
2023-04-13T12:02:54.709Z,7.23
2023-04-13T12:06:04.722Z,7.31
2023-04-13T12:09:12.608Z,7.32
2023-04-13T12:12:50.693Z,7.38
2023-04-13T12:15:58.182Z,7.30
2023-04-13T12:19:10.372Z,7.28
2023-04-13T12:22:15.326Z,7.18
2023-04-13T12:25:20.640Z,7.24
2023-04-13T12:28:22.654Z,7.30
2023-04-13T12:31:24.653Z,7.27
2023-04-13T12:34:26.401Z,7.23
2023-04-13T12:37:29.683Z,7.28
2023-04-13T12:40:33.059Z,7.28
2023-04-13T12:43:34.831Z,7.30
2023-04-13T12:46:37.924Z,7.23
2023-04-13T12:49:39.964Z,7.20
2023-04-13T12:52:43.413Z,7.09
2023-04-13T12:55:48.122Z,7.00
2023-04-13T12:58:50.976Z,6.88
2023-04-13T13:01:52.954Z,6.47
2023-04-13T13:04:55.831Z,6.05
2023-04-13T13:07:57.774Z,5.38
2023-04-13T13:11:01.180Z,5.02
2023-04-13T13:14:04.414Z,4.85
2023-04-13T13:17:06.573Z,4.99
2023-04-13T13:20:10.114Z,5.20
2023-04-13T13:23:12.300Z,5.35
2023-04-13T13:29:22.069Z,5.59
2023-04-13T13:32:25.330Z,5.71
2023-04-13T13:35:27.952Z,5.86
2023-04-13T13:38:31.291Z,5.90
2023-04-13T13:41:34.552Z,5.92
2023-04-13T13:44:38.167Z,5.90
2023-04-13T13:47:40.801Z,6.01
2023-04-13T13:50:42.964Z,6.09
2023-04-13T13:53:44.767Z,6.20
2023-04-13T13:56:49.742Z,6.13
2023-04-13T13:59:51.876Z,6.19
2023-04-13T14:02:53.940Z,6.26
2023-04-13T14:05:55.772Z,6.28
2023-04-13T14:08:58.134Z,6.32
2023-04-13T14:12:02.008Z,6.34
2023-04-13T14:15:05.135Z,6.20
2023-04-13T14:18:11.456Z,6.00
2023-04-13T14:21:13.758Z,5.96
2023-04-13T14:24:15.618Z,5.83
2023-04-13T14:27:20.335Z,5.81
2023-04-13T14:30:23.675Z,5.85
2023-04-13T14:33:26.536Z,5.83
2023-04-13T14:36:28.580Z,5.94
2023-04-13T14:39:33.278Z,6.08
2023-04-13T14:42:36.616Z,6.28
2023-04-13T14:45:38.474Z,6.41
2023-04-13T14:48:40.246Z,6.53
2023-04-13T14:51:42.464Z,6.58
2023-04-13T14:54:44.677Z,6.66
2023-04-13T14:57:55.268Z,6.76
2023-04-13T15:00:57.228Z,6.75
2023-04-13T15:04:03.602Z,6.79
2023-04-13T15:07:05.732Z,6.64
2023-04-13T15:10:10.724Z,6.66
2023-04-13T15:13:14.326Z,6.69
2023-04-13T15:16:16.409Z,6.71
2023-04-13T15:19:18.603Z,6.74
2023-04-13T15:22:20.445Z,6.78
2023-04-13T15:25:23.895Z,6.78
2023-04-13T15:28:27.207Z,6.89
2023-04-13T15:31:32.669Z,6.52
2023-04-13T15:34:34.508Z,6.55
2023-04-13T15:37:38.120Z,6.56
2023-04-13T15:40:39.983Z,6.14
2023-04-13T15:43:44.363Z,5.75
2023-04-13T15:46:46.101Z,5.88
2023-04-13T15:49:48.815Z,5.88
2023-04-13T15:52:50.791Z,6.05
2023-04-13T15:55:52.635Z,6.20
2023-04-13T15:58:58.761Z,6.36
2023-04-13T16:02:01.842Z,6.42
2023-04-13T16:05:05.860Z,6.36
2023-04-13T16:08:07.671Z,6.28
2023-04-13T16:11:10.669Z,6.33
2023-04-13T16:14:13.765Z,6.40
2023-04-13T16:17:15.779Z,6.35
2023-04-13T16:20:22.002Z,6.27
2023-04-13T16:23:24.544Z,6.34
2023-04-13T16:26:28.820Z,6.39
2023-04-13T16:29:32.512Z,6.39
2023-04-13T16:32:37.885Z,6.35
2023-04-13T16:35:39.835Z,6.21
2023-04-13T16:38:41.678Z,6.22
2023-04-13T16:41:43.762Z,6.26
2023-04-13T16:44:46.961Z,6.13
2023-04-13T16:47:48.723Z,5.99
2023-04-13T16:50:58.081Z,5.63
2023-04-13T16:53:59.770Z,5.45
2023-04-13T16:57:02.674Z,5.48
2023-04-13T17:00:07.275Z,5.44
2023-04-13T17:03:09.279Z,5.51
2023-04-13T17:06:11.711Z,5.57
2023-04-13T17:09:13.522Z,5.52
2023-04-13T17:12:15.837Z,5.53
2023-04-13T17:15:20.017Z,5.42
2023-04-13T17:18:22.013Z,5.54
2023-04-13T17:21:24.169Z,5.57
2023-04-13T17:24:25.955Z,5.55
2023-04-13T17:27:28.130Z,5.65
2023-04-13T17:30:32.068Z,5.71
2023-04-13T17:33:34.438Z,5.75
2023-04-13T17:36:36.752Z,5.80
2023-04-13T17:39:38.707Z,5.84
2023-04-13T17:42:40.774Z,5.82
2023-04-13T17:45:44.375Z,5.83
2023-04-13T17:48:46.362Z,5.76
2023-04-13T17:51:48.858Z,5.66
2023-04-13T17:54:52.797Z,5.50
2023-04-13T17:57:54.679Z,5.62
2023-04-13T18:00:58.099Z,5.63
2023-04-13T18:04:00.419Z,5.64
2023-04-13T18:07:02.578Z,5.72
2023-04-13T18:10:06.411Z,5.67
2023-04-13T18:13:10.641Z,5.70
2023-04-13T18:16:14.507Z,5.66
2023-04-13T18:19:16.920Z,5.73
2023-04-13T18:22:19.522Z,5.74
2023-04-13T18:25:21.799Z,5.72
2023-04-13T18:28:24.632Z,5.74
2023-04-13T18:31:28.761Z,5.68
2023-04-13T18:34:31.259Z,5.73
2023-04-13T18:37:33.440Z,5.75
2023-04-13T18:40:36.175Z,5.75
2023-04-13T18:43:38.901Z,5.75
2023-04-13T18:46:42.668Z,5.71
2023-04-13T18:49:45.250Z,5.68
2023-04-13T18:52:48.158Z,5.69
2023-04-13T18:55:51.198Z,5.72
2023-04-13T18:58:53.886Z,5.66
2023-04-13T19:01:58.128Z,5.62
2023-04-13T19:05:00.542Z,5.67
2023-04-13T19:08:04.504Z,5.49
2023-04-13T19:11:07.116Z,5.51
2023-04-13T19:14:09.555Z,5.50
2023-04-13T19:17:12.768Z,5.53
2023-04-13T19:20:14.986Z,5.49
2023-04-13T19:23:17.234Z,5.55
2023-04-13T19:26:20.456Z,5.53
2023-04-13T19:29:23.268Z,5.52
2023-04-13T19:32:27.040Z,5.59
2023-04-13T19:35:29.148Z,5.60
2023-04-13T19:38:31.303Z,5.64
2023-04-13T19:41:34.797Z,5.56
2023-04-13T19:44:37.471Z,5.56
2023-04-13T19:47:42.610Z,5.51
2023-04-13T19:50:44.853Z,5.46
2023-04-13T19:53:47.121Z,5.38
2023-04-13T19:56:49.689Z,5.36
2023-04-13T19:59:52.054Z,5.30
2023-04-13T20:02:56.823Z,5.37
2023-04-13T20:05:59.544Z,5.37
2023-04-13T20:09:09.677Z,5.39
2023-04-13T20:12:12.018Z,5.42
2023-04-13T20:15:14.936Z,5.35
2023-04-13T20:18:18.418Z,5.27
2023-04-13T20:21:20.863Z,5.25
2023-04-13T20:24:22.742Z,5.22
2023-04-13T20:27:25.433Z,5.18
2023-04-13T20:30:28.427Z,5.21
2023-04-13T20:33:31.625Z,5.19
2023-04-13T20:36:35.056Z,5.08
2023-04-13T20:39:37.752Z,5.04
2023-04-13T20:42:40.266Z,4.96
2023-04-13T20:45:42.453Z,5.00
2023-04-13T20:48:49.027Z,4.92
2023-04-13T20:51:52.321Z,4.77
2023-04-13T20:54:54.337Z,4.50
2023-04-13T20:57:56.231Z,4.45
2023-04-13T21:00:58.412Z,4.30
2023-04-13T21:04:01.779Z,4.40
2023-04-13T21:07:03.810Z,4.49
2023-04-13T21:10:06.785Z,4.54
2023-04-13T21:13:08.486Z,4.58
2023-04-13T21:16:11.212Z,4.67
2023-04-13T21:19:14.416Z,4.75
2023-04-13T21:22:16.148Z,4.76
2023-04-13T21:25:17.931Z,4.81
2023-04-13T21:28:19.780Z,4.84
2023-04-13T21:31:21.488Z,4.84
2023-04-13T21:34:24.595Z,4.83
2023-04-13T21:37:27.712Z,4.83
2023-04-13T21:40:29.467Z,4.86
2023-04-13T21:43:31.162Z,4.88
2023-04-13T21:46:33.038Z,4.87
2023-04-13T21:49:36.121Z,4.83
2023-04-13T21:52:37.892Z,4.81
2023-04-13T21:55:39.657Z,4.81
2023-04-13T21:58:42.965Z,4.75
2023-04-13T22:01:44.928Z,4.73
2023-04-13T22:04:48.188Z,4.67
2023-04-13T22:07:50.305Z,4.67
2023-04-13T22:10:52.087Z,4.64
2023-04-13T22:13:53.798Z,4.59
2023-04-13T22:16:55.583Z,4.60
2023-04-13T22:19:58.664Z,4.58
2023-04-13T22:23:00.450Z,4.58
2023-04-13T22:26:02.162Z,4.63
2023-04-13T22:29:03.901Z,4.55
2023-04-13T22:32:05.858Z,4.31
2023-04-13T22:35:10.105Z,4.10
2023-04-13T22:38:11.855Z,4.05
2023-04-13T22:41:13.650Z,4.05
2023-04-13T22:44:15.387Z,4.04
2023-04-13T22:47:17.347Z,3.96
2023-04-13T22:50:20.691Z,3.82
2023-04-13T22:53:22.551Z,3.87
2023-04-13T22:56:24.243Z,3.74
2023-04-13T22:59:25.966Z,3.66
2023-04-13T23:02:27.904Z,3.56
2023-04-13T23:05:31.088Z,3.52
2023-04-13T23:08:32.768Z,3.38
2023-04-13T23:11:34.566Z,3.44
2023-04-13T23:14:36.367Z,3.52
2023-04-13T23:17:38.117Z,3.39
2023-04-13T23:20:41.335Z,3.41
2023-04-13T23:23:43.095Z,3.29
2023-04-13T23:26:44.894Z,3.31
2023-04-13T23:29:48.906Z,3.31
2023-04-13T23:32:50.687Z,2.94
2023-04-13T23:35:53.830Z,2.82
2023-04-13T23:38:55.600Z,2.86
2023-04-13T23:41:57.307Z,2.73
2023-04-13T23:44:59.125Z,2.55
2023-04-13T23:48:00.918Z,2.49
2023-04-13T23:51:04.076Z,2.36
2023-04-13T23:54:05.770Z,2.37
2023-04-13T23:57:07.549Z,2.26
